• Join FlightAware (Why Join?)
  • Login
  • US Flag 
Trick or treat! (Boo!!) 
08:24PM EDT


 

Airport Tracker/Info


-or-


 

Live Flight TrackerFlight Track Log ✈ FLG3432 ✈ 02-May-2013 ✈ KALB - KMSP

Flight Track Log - Related Links

Times and Time Zones

All times are in EDT time to prevent confusion due to time zone crossing. See the FLG3432 flight status page for this flight to view local times or setup timezone preferences in your user account.

Time Position Orientation Groundspeed Altitude Reporting Facility
EDT Latitude Longitude Course Direction KTS MPH feet Rate Location/Type
06:31AM 42.7736 -73.8064 284° West 179 206 1,300  Level Boston Center
06:31AM 42.7903 -73.8094 352° North 182 209 2,200 2,160 Climbing Boston Center
06:32AM 42.8333 -73.8642 317° Northwest 215 247 4,200 1,980 Climbing Boston Center
06:33AM 42.8744 -73.9189 316° Northwest 269 310 5,600 2,220 Climbing Boston Center
06:34AM 42.8391 -74.3678 283° West  Level FlightAware Approximate
06:34AM 42.9194 -73.9767 317° Northwest 278 320 8,000  Level Boston Center
06:35AM 42.8632 -74.5122 283° West  Level FlightAware Approximate
06:35AM 42.9808 -74.0633 314° West 284 327 10,700  Level Boston Center
06:36AM 42.8987 -74.6503 284° West  Level FlightAware Approximate
06:36AM 43.0461 -74.1589 313° West 321 369 12,300  Level Boston Center
06:37AM 43.0922 -74.2711 299° West 343 395 14,500 2,100 Climbing Boston Center
06:38AM 43.0981 -74.4164 273° West 369 425 16,600 1,800 Climbing Boston Center
06:39AM 43.1039 -74.5644 273° West 388 447 18,100 1,320 Climbing Boston Center
06:40AM 43.1114 -74.7183 274° West 398 458 19,300 1,500 Climbing Boston Center
06:41AM 43.1164 -74.8719 273° West 408 470 21,100 1,800 Climbing Boston Center
06:42AM 43.1214 -75.0289 273° West 408 470 22,900 1,560 Climbing Boston Center
06:43AM 43.1281 -75.1883 273° West 413 475 24,300 1,320 Climbing Boston Center
06:44AM 43.1325 -75.3481 272° West 424 488 25,600 1,200 Climbing Boston Center
06:45AM 43.1406 -75.5133 274° West 429 494 26,800 1,140 Climbing Boston Center
06:46AM 43.1464 -75.6817 273° West 435 501 27,900 1,140 Climbing Boston Center
06:47AM 43.1517 -75.8528 272° West 441 507 29,100 1,260 Climbing Boston Center
06:48AM 43.1569 -76.0239 272° West 451 519 30,500 1,260 Climbing Boston Center
06:49AM 43.1500 -76.2500 268° West 440 506 32,500 1,200 Climbing Toronto Center
06:50AM 43.1392 -76.4631 266° West 434 499 33,700 720 Climbing Cleveland Center
06:51AM 43.1242 -76.6292 263° West 439 505 34,000 120 Climbing Cleveland Center
06:52AM 43.1106 -76.7808 263° West 445 512 34,000  Level Cleveland Center
06:53AM 43.0992 -76.9492 265° West 445 512 34,000  Level Cleveland Center
06:54AM 43.1194 -77.1358 279° West 445 512 34,000  Level Cleveland Center
06:55AM 43.1389 -77.3025 279° West 445 512 34,000  Level Cleveland Center
06:56AM 43.1583 -77.4694 279° West 445 512 34,000  Level Cleveland Center
06:57AM 43.1792 -77.6364 280° West 445 512 34,000  Level Cleveland Center
06:58AM 43.2000 -77.8008 280° West 445 512 34,000  Level Cleveland Center
06:59AM 43.2289 -77.9675 283° West 445 512 34,000  Level Cleveland Center
07:00AM 43.2575 -78.1317 284° West 445 512 34,000  Level Cleveland Center
07:01AM 43.2881 -78.2958 284° West 445 512 34,000  Level Cleveland Center
07:02AM 43.3161 -78.4603 283° West 445 512 34,000  Level Cleveland Center
07:03AM 43.3439 -78.6250 283° West 445 512 34,000  Level Cleveland Center
07:04AM 43.3717 -78.7869 283° West 450 518 34,000  Level Cleveland Center
07:05AM 43.4011 -78.9575 283° West 450 518 34,000  Level Cleveland Center
07:06AM 43.4167 -79.0833 280° West 440 506 34,000  Level Toronto Center
07:07AM 43.4500 -79.2667 284° West 440 506 34,000  Level Toronto Center
07:08AM 43.4667 -79.4333 278° West 440 506 34,000  Level Toronto Center
07:09AM 43.5000 -79.5833 287° West 440 506 34,000  Level Toronto Center
07:10AM 43.5167 -79.7500 278° West 450 518 34,000  Level Toronto Center
07:11AM 43.5500 -79.9167 285° West 450 518 34,000  Level Toronto Center
07:12AM 43.5833 -80.0667 287° West 440 506 34,000  Level Toronto Center
07:13AM 43.6000 -80.2500 277° West 440 506 34,000  Level Toronto Center
07:14AM 43.6333 -80.4167 286° West 450 518 34,000  Level Toronto Center
07:15AM 43.6500 -80.5833 278° West 440 506 34,000  Level Toronto Center
07:16AM 43.6833 -80.7333 287° West 450 518 34,000  Level Toronto Center
07:17AM 43.7000 -80.9167 277° West 450 518 34,000  Level Toronto Center
07:18AM 43.7167 -81.0833 278° West 450 518 34,000  Level Toronto Center
07:19AM 43.7500 -81.2500 286° West 450 518 34,000  Level Toronto Center
07:20AM 43.7833 -81.4167 286° West 450 518 34,000  Level Toronto Center
07:21AM 43.8000 -81.6000 277° West 440 506 34,000  Level Toronto Center
07:22AM 43.8333 -81.7667 286° West 440 506 34,000  Level Toronto Center
07:23AM 43.8500 -81.9167 279° West 440 506 34,000  Level Toronto Center
07:24AM 43.8667 -82.0833 278° West 440 506 34,000  Level Toronto Center
07:25AM 43.8833 -82.2500 278° West 440 506 34,000  Level Toronto Center
07:26AM 43.9247 -82.4167 289° West 443 510 34,000  Level Minneapolis Center
07:27AM 43.9461 -82.5836 280° West 441 507 34,000  Level Minneapolis Center
07:28AM 43.9689 -82.7508 281° West 442 509 34,000  Level Minneapolis Center
07:30AM 43.9997 -82.9839 280° West 440 506 34,000  Level Minneapolis Center
07:31AM 44.0214 -83.1506 280° West 440 506 34,000  Level Minneapolis Center
07:32AM 44.0433 -83.3153 281° West 437 503 34,000  Level Minneapolis Center
07:33AM 44.0636 -83.4819 280° West 437 503 34,000  Level Minneapolis Center
07:34AM 44.0853 -83.6450 281° West 433 498 34,000  Level Minneapolis Center
07:35AM 44.1053 -83.8067 280° West 427 491 34,000  Level Minneapolis Center
07:36AM 44.1253 -83.9672 280° West 424 488 34,000  Level Minneapolis Center
07:37AM 44.1439 -84.1261 279° West 418 481 34,000  Level Minneapolis Center
07:38AM 44.1633 -84.2869 280° West 419 482 34,000  Level Minneapolis Center
07:39AM 44.1825 -84.4486 279° West 424 488 34,000  Level Minneapolis Center
07:40AM 44.2019 -84.6131 279° West 428 493 34,000  Level Minneapolis Center
07:41AM 44.2228 -84.7783 280° West 431 496 34,000  Level Minneapolis Center
07:42AM 44.2408 -84.9456 279° West 434 499 34,000  Level Minneapolis Center
07:43AM 44.2603 -85.1153 279° West 438 504 34,000  Level Minneapolis Center
07:44AM 44.2783 -85.2850 279° West 441 507 34,000  Level Minneapolis Center
07:45AM 44.2989 -85.4831 278° West 436 502 34,000  Level Minneapolis Center
07:46AM 44.3211 -85.6508 281° West 436 502 34,000  Level Minneapolis Center
07:47AM 44.3431 -85.8242 280° West 448 516 34,000  Level Minneapolis Center
07:48AM 44.3658 -86.0039 280° West 464 534 34,000  Level Minneapolis Center
07:49AM 44.3869 -86.1806 280° West 460 529 34,000  Level Minneapolis Center
07:50AM 44.4075 -86.3558 279° West 455 524 34,000  Level Minneapolis Center
07:51AM 44.4292 -86.5331 280° West 459 528 34,000 -120 Level Minneapolis Center
07:52AM 44.4497 -86.7125 279° West 463 533 33,800 -540 Descending Minneapolis Center
07:53AM 44.4661 -86.8547 279° West 463 533 33,000 -900 Descending Minneapolis Center
07:54AM 44.4903 -87.0614 279° West 449 517 32,000 -540 Descending Minneapolis Center
07:55AM 44.5097 -87.2325 279° West 446 513 32,000  Level Minneapolis Center
07:56AM 44.5289 -87.4053 279° West 448 516 32,000  Level Minneapolis Center
07:57AM 44.5478 -87.5811 279° West 455 524 32,000  Level Minneapolis Center
07:58AM 44.5661 -87.7575 278° West 458 527 32,000  Level Minneapolis Center
07:59AM 44.5864 -87.9586 278° West 454 522 32,000  Level Minneapolis Center
08:00AM 44.6044 -88.1322 278° West 453 521 32,000  Level Minneapolis Center
08:01AM 44.6231 -88.3036 279° West 445 512 32,000  Level Minneapolis Center
08:02AM 44.6392 -88.4742 278° West 442 509 32,000  Level Minneapolis Center
08:03AM 44.6569 -88.6439 278° West 441 507 32,000  Level Minneapolis Center
08:04AM 44.6731 -88.8172 278° West 446 513 32,000  Level Minneapolis Center
08:05AM 44.6897 -88.9928 278° West 452 520 32,000  Level Minneapolis Center
08:06AM 44.7061 -89.1681 278° West 453 521 32,000  Level Minneapolis Center
08:07AM 44.7250 -89.3706 278° West 448 516 32,000  Level Minneapolis Center
08:08AM 44.7406 -89.5428 277° West 446 513 32,000  Level Minneapolis Center
08:09AM 44.7553 -89.7156 277° West 445 512 32,000  Level Minneapolis Center
08:10AM 44.7708 -89.8878 277° West 445 512 32,000  Level Minneapolis Center
08:11AM 44.7864 -90.0606 277° West 447 514 32,000  Level Minneapolis Center
08:12AM 44.8006 -90.2344 277° West 447 514 32,000  Level Minneapolis Center
08:13AM 44.8150 -90.4050 277° West 440 506 32,000 -360 Level Minneapolis Center
08:14AM 44.8281 -90.5653 277° West 437 503 31,300 -1,620 Descending Minneapolis Center
08:15AM 44.8439 -90.7642 276° West 428 493 28,800 -2,220 Descending Minneapolis Center
08:16AM 44.8561 -90.9281 276° West 422 486 26,800 -1,920 Descending Minneapolis Center
08:18AM 44.8700 -91.0853 277° West 412 474 24,900 -1,920 Descending Minneapolis Center
08:19AM 44.8950 -91.2364 283° West 401 461 22,900 -1,980 Descending Minneapolis Center
08:20AM 44.9169 -91.3864 282° West 395 455 20,900 -1,920 Descending Minneapolis Center
08:21AM 44.9394 -91.5331 282° West 389 448 19,000 -1,560 Descending Minneapolis Center
08:22AM 44.9628 -91.6786 283° West 383 441 17,800 -1,260 Descending Minneapolis Center
08:23AM 44.9783 -91.7883 281° West 367 422 16,500 -1,860 Descending Minneapolis Center
08:24AM 45.0061 -91.9786 282° West 354 407 14,100 -2,040 Descending Minneapolis Center
08:25AM 45.0253 -92.1158 281° West 359 413 12,400 -1,560 Descending Minneapolis Center
08:26AM 45.0431 -92.2478 281° West 346 398 11,000 -720 Descending Minneapolis Center
08:27AM 45.0275 -92.3753 260° West 339 390 11,000 -240 Level Minneapolis Center
08:28AM 44.9797 -92.4806 237° Southwest 319 367 10,600 -840 Descending Minneapolis Center
08:29AM 44.9369 -92.5728 237° Southwest 286 329 9,400 -1,380 Descending Minneapolis Center
08:30AM 44.8936 -92.6644 236° Southwest 283 326 7,800 -1,320 Descending Minneapolis Center
08:31AM 44.8478 -92.7494 233° Southwest 274 315 6,800 -1,260 Descending Minneapolis Center
08:32AM 44.7747 -92.8244 216° Southwest 282 325 5,000 -1,260 Descending Minneapolis Center
08:33AM 44.7356 -92.8883 229° Southwest 232 267 4,100 -540 Descending Minneapolis Center
08:34AM 44.7706 -92.9450 311° West 154 177 4,000 -60 Descending Minneapolis Center
08:35AM 44.7947 -92.9944 305° West 154 177 4,000 -240 Level Minneapolis Center
08:36AM 44.8158 -93.0442 301° West 149 171 3,600 -600 Descending Minneapolis Center
08:37AM 44.8350 -93.0872 302° West 133 153 2,800 -780 Descending Minneapolis Center